Time;durP1;ratioP1;P1;durP2;ratioP2;P2;SDS_P1;SDS_P2;PMS_P1;PMS_P2;Temp;Humidity;BMP_temperature;BMP_pressure;BME280_temperature;BME280_humidity;BME280_pressure;Samples;Min_cycle;Max_cycle;Signal;HPM_P1;HPM_P2
2023/03/16 00:02:05;;;;;;;1.10;1.00;;;;;;;5.34;80.58;93984.31;5014355;28;20548;-77
2023/03/16 00:04:36;;;;;;;1.00;0.90;;;;;;;5.46;81.01;94013.19;5010469;28;20843;-78
2023/03/16 00:07:02;;;;;;;1.00;0.90;;;;;;;5.40;81.57;94014.00;5017052;28;20266;-77
2023/03/16 00:09:30;;;;;;;0.80;0.80;;;;;;;5.49;81.13;94018.84;5014289;28;20499;-77
2023/03/16 00:12:02;;;;;;;0.98;0.90;;;;;;;5.54;81.26;94021.63;5018885;28;20772;-78
2023/03/16 00:14:30;;;;;;;1.17;1.08;;;;;;;5.45;80.99;94024.66;5018817;28;20424;-78
2023/03/16 00:16:55;;;;;;;1.33;1.23;;;;;;;5.46;80.71;94026.25;5030205;28;20776;-78
2023/03/16 00:19:21;;;;;;;1.97;1.07;;;;;;;5.25;81.14;94014.19;5014298;28;20415;-78
2023/03/16 00:21:50;;;;;;;1.17;1.08;;;;;;;5.35;81.88;94025.06;5029886;28;20417;-77
2023/03/16 00:24:17;;;;;;;1.10;0.82;;;;;;;5.35;81.64;94022.44;5029803;28;20409;-77
2023/03/16 00:26:43;;;;;;;0.80;0.80;;;;;;;5.31;82.19;94023.84;5029956;28;20426;-78
2023/03/16 00:29:10;;;;;;;1.20;1.10;;;;;;;5.20;81.08;94027.03;5014430;28;20449;-78
2023/03/16 00:31:38;;;;;;;1.15;0.95;;;;;;;5.22;81.54;94028.44;5013303;28;20849;-78
2023/03/16 00:34:04;;;;;;;1.20;1.10;;;;;;;5.14;81.59;94030.44;5023382;28;20415;-77
2023/03/16 00:36:32;;;;;;;2.63;1.27;;;;;;;5.12;81.88;94028.00;5015020;28;20492;-77
2023/03/16 00:38:58;;;;;;;1.10;1.10;;;;;;;5.18;81.82;94036.88;5015911;28;20180;-77
2023/03/16 00:41:24;;;;;;;1.27;1.10;;;;;;;5.26;81.93;94036.69;5027145;28;20475;-78
2023/03/16 00:43:50;;;;;;;1.73;1.40;;;;;;;5.17;81.64;94027.44;5019346;28;20417;-77
2023/03/16 00:46:16;;;;;;;1.67;1.40;;;;;;;5.23;81.37;94042.28;5032491;28;20800;-78
2023/03/16 00:48:44;;;;;;;2.40;1.50;;;;;;;5.10;81.77;94043.03;5020502;28;20437;-77
2023/03/16 00:51:13;;;;;;;1.30;1.20;;;;;;;5.15;81.05;94047.69;5031709;28;20409;-77
2023/03/16 00:53:41;;;;;;;1.80;1.27;;;;;;;5.18;81.53;94036.88;5033976;28;20419;-77
2023/03/16 00:56:07;;;;;;;1.52;1.30;;;;;;;5.09;81.53;94030.22;5017624;28;20846;-77
2023/03/16 00:58:35;;;;;;;2.58;1.70;;;;;;;5.02;81.33;94042.41;5023951;28;20481;-77
2023/03/16 01:01:09;;;;;;;1.50;1.30;;;;;;;4.83;81.90;94042.19;5013972;28;20406;-78
2023/03/16 01:03:34;;;;;;;2.00;1.70;;;;;;;4.76;82.18;94025.69;5014885;28;20417;-78
2023/03/16 01:06:05;;;;;;;2.47;1.90;;;;;;;4.97;82.09;94044.84;5020502;28;20417;-78
2023/03/16 01:08:31;;;;;;;2.42;1.70;;;;;;;4.92;82.00;94042.81;5016677;28;20466;-77
2023/03/16 01:11:09;;;;;;;3.00;1.70;;;;;;;4.96;81.83;94048.44;5028778;28;20198;-77
2023/03/16 01:13:35;;;;;;;2.05;1.55;;;;;;;4.96;81.37;94044.03;5033672;28;20528;-78
2023/03/16 01:16:00;;;;;;;2.60;1.45;;;;;;;4.58;82.53;94029.88;5020062;28;20418;-77
2023/03/16 01:18:27;;;;;;;4.33;2.47;;;;;;;4.77;82.17;94048.16;5023799;28;20660;-77
2023/03/16 01:20:52;;;;;;;2.35;1.55;;;;;;;4.65;82.07;94041.94;5021696;28;20840;-78
2023/03/16 01:23:21;;;;;;;3.63;2.37;;;;;;;4.74;82.12;94050.38;5028232;28;20475;-78
2023/03/16 01:25:51;;;;;;;2.97;2.05;;;;;;;4.77;81.74;94047.38;5024266;28;20418;-78
2023/03/16 01:28:23;;;;;;;2.07;1.60;;;;;;;4.69;82.43;94050.94;5027639;28;20497;-77
2023/03/16 01:30:56;;;;;;;1.53;1.37;;;;;;;4.72;82.67;94047.97;5034369;28;20259;-77
2023/03/16 01:33:25;;;;;;;1.50;1.33;;;;;;;4.86;82.56;94052.22;5034413;28;20172;-76
2023/03/16 01:35:55;;;;;;;1.95;1.60;;;;;;;4.80;81.90;94039.97;5023973;28;20433;-76
2023/03/16 01:38:21;;;;;;;1.20;1.10;;;;;;;4.80;81.76;94060.81;5028442;28;20663;-77
2023/03/16 01:40:50;;;;;;;2.77;1.33;;;;;;;4.81;81.88;94059.81;5025489;28;20211;-77
2023/03/16 01:43:19;;;;;;;1.58;1.30;;;;;;;4.85;81.13;94065.44;5032414;28;20434;-77
2023/03/16 01:45:57;;;;;;;1.10;1.00;;;;;;;4.89;80.16;94070.09;5017229;28;20496;-77
2023/03/16 01:48:25;;;;;;;2.13;1.13;;;;;;;4.87;80.14;94056.44;5026999;28;20187;-77
2023/03/16 01:50:52;;;;;;;0.93;0.93;;;;;;;4.86;79.61;94067.84;5034243;28;20405;-77
2023/03/16 01:53:20;;;;;;;1.50;0.98;;;;;;;4.84;79.87;94072.47;5029397;28;20432;-77
2023/03/16 01:55:47;;;;;;;0.90;0.90;;;;;;;4.86;80.22;94065.25;5013240;28;20414;-77
2023/03/16 01:58:13;;;;;;;0.90;0.90;;;;;;;4.79;80.18;94058.41;5014986;28;20760;-78
2023/03/16 02:00:40;;;;;;;0.80;0.80;;;;;;;4.68;79.95;94057.16;5015126;28;20433;-76
2023/03/16 02:03:17;;;;;;;2.88;2.00;;;;;;;4.64;81.08;94079.41;5032062;28;20495;-76
2023/03/16 02:06:17;;;;;;;1.83;1.50;;;;;;;4.65;80.99;94083.63;5032786;28;20800;-76
2023/03/16 02:08:45;;;;;;;0.73;0.73;;;;;;;4.55;81.10;94089.19;5010312;28;20462;-76
2023/03/16 02:11:16;;;;;;;0.80;0.80;;;;;;;4.61;81.50;94087.59;5032895;28;20413;-76
2023/03/16 02:13:43;;;;;;;0.87;0.87;;;;;;;4.70;81.51;94088.25;5024853;28;20974;-75
2023/03/16 02:16:09;;;;;;;1.40;1.30;;;;;;;4.69;81.51;94092.66;5031135;28;20178;-76
2023/03/16 02:18:35;;;;;;;1.03;1.03;;;;;;;4.70;81.51;94096.88;5033624;28;20176;-76
2023/03/16 02:21:24;;;;;;;2.17;1.37;;;;;;;4.68;81.73;94101.47;5023626;28;20175;-76
2023/03/16 02:23:52;;;;;;;2.58;1.60;;;;;;;4.49;82.60;94083.94;5025249;28;21230;-76
2023/03/16 02:26:23;;;;;;;1.80;1.20;;;;;;;4.41;82.82;94104.94;5016116;28;20422;-76
2023/03/16 02:29:00;;;;;;;2.45;1.27;;;;;;;4.17;84.43;94104.38;5011610;28;20435;-76
2023/03/16 02:31:26;;;;;;;1.63;1.52;;;;;;;4.04;84.91;94101.69;5020990;28;20839;-76
2023/03/16 02:33:52;;;;;;;1.40;1.20;;;;;;;4.01;85.97;94109.06;5031413;28;20412;-75
2023/03/16 02:36:20;;;;;;;1.77;1.20;;;;;;;4.13;86.08;94118.78;5025353;28;20422;-76
2023/03/16 02:38:45;;;;;;;1.37;1.27;;;;;;;4.16;85.68;94120.19;5012325;28;20480;-76
2023/03/16 02:41:17;;;;;;;1.17;1.10;;;;;;;4.16;85.87;94115.78;5012823;28;20929;-76
2023/03/16 02:43:57;;;;;;;1.42;1.20;;;;;;;4.20;85.20;94112.81;5011708;28;20476;-76
2023/03/16 02:46:25;;;;;;;1.33;1.20;;;;;;;4.17;85.42;94120.00;5015816;28;20837;-76
2023/03/16 02:49:04;;;;;;;1.50;1.25;;;;;;;4.07;85.50;94090.88;5012351;28;20933;-76
2023/03/16 02:51:31;;;;;;;2.25;1.90;;;;;;;4.28;85.54;94112.66;4993791;28;20872;-76
2023/03/16 02:53:56;;;;;;;2.80;1.92;;;;;;;3.99;85.73;94119.66;5005827;28;20905;-76
2023/03/16 02:56:22;;;;;;;1.93;1.70;;;;;;;3.85;86.50;94124.97;5011468;28;20436;-76
2023/03/16 02:58:47;;;;;;;2.17;1.70;;;;;;;3.83;86.94;94114.75;4995250;28;20238;-76
2023/03/16 03:01:13;;;;;;;2.20;1.80;;;;;;;3.77;87.68;94118.09;5006463;28;20406;-76
2023/03/16 03:03:38;;;;;;;4.10;2.30;;;;;;;3.87;87.74;94121.19;5011262;28;20418;-76
2023/03/16 03:06:04;;;;;;;4.03;2.15;;;;;;;3.80;87.58;94117.72;5011027;28;20425;-76
2023/03/16 03:08:31;;;;;;;3.10;2.10;;;;;;;4.04;87.47;94132.94;5006249;28;20481;-76
2023/03/16 03:10:57;;;;;;;1.87;1.50;;;;;;;4.06;87.10;94136.16;5006175;28;20168;-76
2023/03/16 03:13:23;;;;;;;2.83;1.77;;;;;;;4.12;86.39;94134.59;5012463;28;20434;-76
2023/03/16 03:15:48;;;;;;;1.10;1.00;;;;;;;4.01;85.61;94140.31;5008150;28;20451;-76
2023/03/16 03:18:14;;;;;;;1.20;1.10;;;;;;;3.95;85.27;94139.28;5012223;28;20402;-76
2023/03/16 03:20:39;;;;;;;1.70;1.40;;;;;;;4.13;85.94;94151.84;5009949;28;20414;-76
2023/03/16 03:23:05;;;;;;;1.80;1.43;;;;;;;4.12;85.68;94156.25;5012597;28;20222;-76
2023/03/16 03:25:33;;;;;;;2.20;1.55;;;;;;;4.02;84.94;94147.13;4994713;28;20419;-76
2023/03/16 03:28:00;;;;;;;1.20;1.10;;;;;;;3.91;85.36;94150.25;5005752;28;20442;-76
2023/03/16 03:30:27;;;;;;;2.53;1.67;;;;;;;3.95;85.80;94160.09;5010411;28;20579;-77
2023/03/16 03:32:53;;;;;;;1.50;1.37;;;;;;;3.88;85.88;94130.63;5012001;28;20179;-77
2023/03/16 03:35:20;;;;;;;1.70;1.40;;;;;;;4.07;85.08;94163.78;5010960;28;20421;-77
2023/03/16 03:37:45;;;;;;;1.92;1.40;;;;;;;4.01;84.77;94164.56;5012295;28;20411;-79
2023/03/16 03:40:14;;;;;;;1.77;1.40;;;;;;;3.92;84.93;94168.28;5010602;28;20960;-76
2023/03/16 03:42:41;;;;;;;2.20;1.60;;;;;;;3.52;85.31;94138.50;5004293;28;20512;-76
2023/03/16 03:45:07;;;;;;;1.30;1.20;;;;;;;3.70;85.99;94172.69;5014412;28;20510;-76
2023/03/16 03:47:33;;;;;;;1.37;1.27;;;;;;;3.79;86.16;94168.97;5031637;28;20176;-77
2023/03/16 03:49:58;;;;;;;3.35;1.98;;;;;;;3.71;85.40;94173.50;5029779;28;20487;-76
2023/03/16 03:52:24;;;;;;;3.13;2.07;;;;;;;3.63;86.04;94168.44;5009573;28;20817;-76
2023/03/16 03:54:50;;;;;;;2.30;1.40;;;;;;;3.67;86.45;94182.66;5018860;28;20416;-77
2023/03/16 03:57:16;;;;;;;2.78;1.90;;;;;;;3.78;86.30;94195.19;5030414;28;20466;-76
2023/03/16 03:59:42;;;;;;;1.75;1.30;;;;;;;3.77;86.45;94189.19;5030274;28;20434;-76
2023/03/16 04:02:12;;;;;;;1.13;1.00;;;;;;;3.59;85.54;94174.97;5029689;28;20412;-76
2023/03/16 04:04:39;;;;;;;1.08;0.90;;;;;;;3.49;85.72;94175.28;5030730;28;21237;-76
2023/03/16 04:07:04;;;;;;;1.45;1.27;;;;;;;3.71;86.04;94199.53;5013220;28;20425;-77
2023/03/16 04:09:32;;;;;;;1.77;1.37;;;;;;;3.50;85.04;94179.50;5029915;28;20428;-77
2023/03/16 04:11:59;;;;;;;2.03;1.67;;;;;;;3.57;86.02;94159.53;5019237;28;20461;-78
2023/03/16 04:14:25;;;;;;;1.90;1.80;;;;;;;3.79;84.70;94194.19;5028489;28;20408;-77
2023/03/16 04:16:50;;;;;;;1.80;1.70;;;;;;;3.38;86.00;94165.34;5029778;28;20470;-76
2023/03/16 04:19:16;;;;;;;4.13;2.73;;;;;;;3.70;86.27;94182.28;5031345;28;20072;-76
2023/03/16 04:21:41;;;;;;;3.53;2.40;;;;;;;3.58;85.67;94174.16;5014794;28;20987;-76
2023/03/16 04:24:06;;;;;;;5.13;3.38;;;;;;;3.75;86.45;94192.94;5018916;28;20507;-77
2023/03/16 04:26:33;;;;;;;6.25;3.45;;;;;;;3.66;85.97;94201.84;5007559;28;20482;-77
2023/03/16 04:28:59;;;;;;;3.85;2.60;;;;;;;3.57;86.12;94197.75;5011099;28;20521;-77
2023/03/16 04:31:24;;;;;;;2.97;2.10;;;;;;;3.67;86.37;94212.09;5012036;28;20184;-77
2023/03/16 04:33:53;;;;;;;3.45;1.98;;;;;;;3.80;86.04;94216.63;5012947;28;20427;-78
2023/03/16 04:36:23;;;;;;;2.85;1.98;;;;;;;3.75;85.65;94222.38;5022984;28;20910;-78
2023/03/16 04:38:49;;;;;;;4.00;2.67;;;;;;;3.68;85.69;94224.13;5002789;28;20434;-78
2023/03/16 04:41:15;;;;;;;2.58;1.92;;;;;;;3.63;86.09;94215.25;5016578;28;20429;-80
2023/03/16 04:43:42;;;;;;;2.27;2.03;;;;;;;3.66;86.10;94212.28;5010229;28;20238;-79
2023/03/16 04:46:08;;;;;;;2.63;2.43;;;;;;;3.83;85.45;94237.06;5014862;28;20531;-78
2023/03/16 04:48:33;;;;;;;2.88;2.10;;;;;;;3.92;85.22;94233.34;5027592;28;20437;-78
2023/03/16 04:51:00;;;;;;;2.67;2.17;;;;;;;3.86;85.23;94222.88;5031415;28;20178;-78
2023/03/16 04:53:26;;;;;;;1.40;1.30;;;;;;;3.91;84.65;94225.72;5029835;28;20459;-78
2023/03/16 04:55:51;;;;;;;1.97;1.50;;;;;;;3.93;83.97;94241.97;5025666;28;20435;-80
2023/03/16 04:58:17;;;;;;;2.75;1.80;;;;;;;3.74;83.86;94227.75;5026964;28;20419;-79
2023/03/16 05:00:42;;;;;;;1.65;1.25;;;;;;;3.58;83.60;94205.38;5030106;28;20415;-81
2023/03/16 05:03:13;;;;;;;2.03;1.83;;;;;;;3.91;83.48;94247.38;5031770;28;20176;-79
2023/03/16 05:05:38;;;;;;;2.13;1.42;;;;;;;4.04;83.10;94257.94;5030614;28;20484;-81
2023/03/16 05:08:06;;;;;;;1.90;1.23;;;;;;;3.92;82.84;94232.56;5023666;28;20437;-82
2023/03/16 05:10:33;;;;;;;1.75;1.48;;;;;;;4.11;82.67;94260.59;5031136;28;20409;-82
2023/03/16 05:12:59;;;;;;;3.13;1.87;;;;;;;4.13;82.87;94262.03;5031356;28;20666;-79
2023/03/16 05:15:25;;;;;;;2.00;1.73;;;;;;;4.06;81.81;94270.75;5033759;28;20507;-79
2023/03/16 05:17:50;;;;;;;2.47;1.90;;;;;;;4.09;81.65;94273.78;5033326;28;20512;-82
2023/03/16 05:20:16;;;;;;;3.83;2.10;;;;;;;4.04;82.50;94268.34;5033940;28;20492;-79
2023/03/16 05:22:44;;;;;;;2.00;1.80;;;;;;;4.05;81.80;94263.94;5033161;28;20495;-80
2023/03/16 05:25:14;;;;;;;4.65;2.50;;;;;;;4.13;81.38;94282.03;5032625;28;20425;-81
2023/03/16 05:27:49;;;;;;;3.22;2.22;;;;;;;4.08;81.73;94276.56;5025237;28;20448;-77
2023/03/16 05:30:15;;;;;;;3.63;2.43;;;;;;;4.09;81.96;94279.00;5034573;28;20262;-78
2023/03/16 05:32:41;;;;;;;2.67;2.30;;;;;;;4.10;81.98;94283.22;5017450;28;20168;-79
2023/03/16 05:35:11;;;;;;;3.58;2.40;;;;;;;4.09;82.15;94283.41;5033126;28;20419;-78
2023/03/16 05:37:36;;;;;;;2.20;2.00;;;;;;;4.09;82.22;94292.00;5032305;28;20417;-79
2023/03/16 05:40:15;;;;;;;3.53;2.42;;;;;;;4.14;82.24;94297.50;5031830;28;20891;-78
2023/03/16 05:42:45;;;;;;;2.10;1.90;;;;;;;4.13;81.79;94298.47;5024940;28;20452;-79
2023/03/16 05:45:13;;;;;;;4.18;2.75;;;;;;;4.27;83.39;94303.81;5033694;28;20451;-81
2023/03/16 05:47:39;;;;;;;3.22;2.40;;;;;;;4.32;82.25;94306.69;5017981;28;20989;-80
2023/03/16 05:50:07;;;;;;;3.80;2.80;;;;;;;4.05;81.54;94272.56;5013942;28;20177;-79
2023/03/16 05:52:34;;;;;;;4.03;2.37;;;;;;;4.05;82.04;94282.97;5002546;28;20724;-82
2023/03/16 05:54:59;;;;;;;2.10;1.80;;;;;;;3.96;81.97;94293.69;5014522;28;20980;-82
2023/03/16 05:57:25;;;;;;;5.27;2.83;;;;;;;4.01;83.05;94310.34;5013902;28;20271;-77
2023/03/16 05:59:51;;;;;;;8.13;4.83;;;;;;;4.03;83.61;94311.00;5004894;28;20231;-77
2023/03/16 06:02:17;;;;;;;6.07;3.50;;;;;;;4.00;83.15;94319.16;5003000;28;20223;-77
2023/03/16 06:04:43;;;;;;;4.57;2.80;;;;;;;3.97;83.63;94295.31;5012224;28;20176;-77
2023/03/16 06:07:09;;;;;;;3.37;1.97;;;;;;;4.11;83.07;94313.47;5018287;28;20183;-78
2023/03/16 06:09:35;;;;;;;3.77;2.47;;;;;;;4.13;83.11;94316.72;5023285;28;20199;-79
2023/03/16 06:12:00;;;;;;;5.73;3.30;;;;;;;4.00;82.07;94318.34;5013183;28;20234;-79
2023/03/16 06:14:26;;;;;;;9.90;4.13;;;;;;;4.06;83.25;94326.25;5012791;28;20562;-77
2023/03/16 06:16:51;;;;;;;10.57;5.50;;;;;;;3.88;82.41;94315.44;5024645;28;20172;-78
2023/03/16 06:19:16;;;;;;;9.37;4.07;;;;;;;4.02;82.47;94321.59;5034007;28;20213;-77
2023/03/16 06:21:42;;;;;;;5.77;3.33;;;;;;;3.84;82.16;94308.16;5025427;28;20184;-78
2023/03/16 06:24:08;;;;;;;7.03;4.20;;;;;;;3.86;82.32;94307.00;5020615;28;20161;-79
2023/03/16 06:26:35;;;;;;;15.57;8.47;;;;;;;4.11;82.48;94339.50;5022192;28;20608;-78
2023/03/16 06:29:01;;;;;;;18.57;9.97;;;;;;;4.16;81.91;94350.19;5014205;28;20196;-77
2023/03/16 06:31:26;;;;;;;6.07;3.83;;;;;;;4.23;81.44;94347.66;5014278;28;20175;-77
2023/03/16 06:33:52;;;;;;;5.10;3.10;;;;;;;4.29;81.19;94354.72;5030326;28;20185;-77
2023/03/16 06:36:17;;;;;;;5.47;3.47;;;;;;;4.23;81.14;94355.47;5010619;28;20216;-77
2023/03/16 06:38:43;;;;;;;7.83;4.23;;;;;;;4.15;81.79;94353.78;5020670;28;20256;-77
2023/03/16 06:41:08;;;;;;;6.97;3.90;;;;;;;4.08;80.91;94367.72;5022117;28;20259;-76
2023/03/16 06:43:34;;;;;;;3.57;2.97;;;;;;;4.12;81.71;94368.97;5030399;28;20255;-77
2023/03/16 06:46:00;;;;;;;5.87;2.93;;;;;;;3.99;80.98;94374.81;5025609;28;20220;-77
2023/03/16 06:48:25;;;;;;;3.33;2.73;;;;;;;3.95;81.10;94364.97;5025835;28;20677;-77
2023/03/16 06:50:51;;;;;;;2.70;2.17;;;;;;;4.05;81.09;94366.31;5027083;28;20252;-77
2023/03/16 06:53:16;;;;;;;2.70;2.03;;;;;;;4.12;81.01;94385.41;5022206;28;20243;-77
2023/03/16 06:55:42;;;;;;;4.73;2.40;;;;;;;4.14;81.50;94388.66;5022182;28;20215;-77
2023/03/16 06:58:07;;;;;;;3.03;2.23;;;;;;;4.17;81.54;94390.84;5015405;28;20234;-77
2023/03/16 07:00:32;;;;;;;3.70;2.10;;;;;;;4.13;81.50;94376.59;5026476;28;20172;-76
2023/03/16 07:02:59;;;;;;;3.93;2.90;;;;;;;4.21;81.39;94391.31;5033067;28;20537;-77
2023/03/16 07:05:24;;;;;;;3.20;2.53;;;;;;;4.24;81.81;94390.94;5024157;28;20207;-77
2023/03/16 07:07:50;;;;;;;5.73;3.40;;;;;;;4.30;81.78;94405.03;5033169;28;20176;-77
2023/03/16 07:10:17;;;;;;;6.67;4.20;;;;;;;4.32;82.15;94406.47;5033224;28;20569;-79
2023/03/16 07:12:43;;;;;;;6.10;4.03;;;;;;;4.40;81.85;94408.16;5033322;28;20605;-76
2023/03/16 07:15:09;;;;;;;5.60;3.93;;;;;;;4.11;81.63;94396.81;5030472;28;20175;-78
2023/03/16 07:17:35;;;;;;;6.17;3.73;;;;;;;4.00;82.21;94380.84;5025096;28;20184;-77
2023/03/16 07:20:04;;;;;;;5.27;3.70;;;;;;;4.15;82.48;94408.47;5028036;28;20178;-78
2023/03/16 07:22:31;;;;;;;7.23;4.00;;;;;;;4.16;82.90;94411.88;5032516;28;20175;-78
2023/03/16 07:24:56;;;;;;;6.17;3.97;;;;;;;4.23;83.19;94411.97;5029687;28;20239;-78
2023/03/16 07:27:23;;;;;;;6.07;3.97;;;;;;;4.33;82.47;94409.84;5017986;28;20592;-78
2023/03/16 07:29:51;;;;;;;6.47;4.17;;;;;;;4.45;82.20;94421.44;5024881;28;20223;-78
2023/03/16 07:32:17;;;;;;;5.80;3.60;;;;;;;4.52;80.91;94417.91;5012932;28;20715;-77
2023/03/16 07:34:42;;;;;;;5.50;3.70;;;;;;;4.56;81.52;94426.16;5021782;28;20196;-78
2023/03/16 07:37:08;;;;;;;3.83;3.43;;;;;;;4.66;80.74;94423.25;5000393;28;20202;-77
2023/03/16 07:39:35;;;;;;;3.90;2.60;;;;;;;4.67;80.33;94415.22;5015250;28;20223;-78
2023/03/16 07:42:00;;;;;;;3.63;2.20;;;;;;;4.66;79.21;94405.84;5022799;28;20183;-78
2023/03/16 07:44:27;;;;;;;2.00;1.80;;;;;;;4.63;79.18;94419.22;5029048;28;20698;-79
2023/03/16 07:46:53;;;;;;;5.70;2.90;;;;;;;4.71;78.92;94426.13;5019793;28;20219;-78
2023/03/16 07:49:18;;;;;;;6.33;3.57;;;;;;;4.71;79.53;94439.16;5023589;28;20701;-77
2023/03/16 07:51:44;;;;;;;4.07;2.20;;;;;;;4.64;79.43;94409.59;5023544;28;20182;-78
2023/03/16 07:54:10;;;;;;;3.63;2.60;;;;;;;4.57;78.46;94409.53;5023142;28;20635;-77
2023/03/16 07:56:36;;;;;;;2.97;2.60;;;;;;;4.66;78.38;94412.84;5025445;28;20172;-79
2023/03/16 07:59:02;;;;;;;5.70;3.70;;;;;;;4.88;79.12;94441.31;5031972;28;20658;-78
2023/03/16 08:01:27;;;;;;;5.13;3.20;;;;;;;4.87;78.84;94436.28;5019376;28;20546;-77
2023/03/16 08:03:53;;;;;;;5.33;3.50;;;;;;;4.89;78.06;94431.72;5030212;28;20184;-78
2023/03/16 08:06:20;;;;;;;6.33;3.70;;;;;;;4.95;78.53;94441.38;5023497;28;20179;-78
2023/03/16 08:08:46;;;;;;;3.93;3.13;;;;;;;5.01;78.92;94442.47;5014100;28;20188;-78
2023/03/16 08:11:11;;;;;;;5.67;3.10;;;;;;;4.71;78.60;94395.63;5023587;28;20186;-78
2023/03/16 08:13:36;;;;;;;4.93;2.63;;;;;;;5.02;78.60;94444.03;5027135;28;20172;-78
2023/03/16 08:16:02;;;;;;;5.43;3.27;;;;;;;5.12;78.88;94444.53;5020957;28;20184;-78
2023/03/16 08:18:28;;;;;;;5.53;3.57;;;;;;;5.30;78.66;94448.31;5014227;28;20182;-78
2023/03/16 08:20:55;;;;;;;3.17;2.23;;;;;;;4.99;76.81;94432.22;5017594;28;20707;-81
2023/03/16 08:23:23;;;;;;;4.87;2.80;;;;;;;5.17;78.00;94456.03;5026718;28;20185;-80
2023/03/16 08:25:56;;;;;;;6.87;3.67;;;;;;;5.29;78.49;94459.75;5029668;28;20175;-80
2023/03/16 08:28:24;;;;;;;6.00;2.87;;;;;;;5.15;76.58;94457.22;5029553;28;20199;-79
2023/03/16 08:30:52;;;;;;;3.33;2.20;;;;;;;5.23;77.17;94472.75;5023853;28;20199;-78
2023/03/16 08:33:19;;;;;;;5.03;3.23;;;;;;;5.23;77.27;94467.53;5019629;28;20168;-78
2023/03/16 08:35:46;;;;;;;5.10;3.60;;;;;;;4.99;76.58;94434.00;5021294;28;20192;-78
2023/03/16 08:38:13;;;;;;;7.90;3.63;;;;;;;5.25;76.60;94473.38;5015101;28;20172;-79
2023/03/16 08:40:41;;;;;;;4.67;3.03;;;;;;;5.24;77.38;94463.94;5015315;28;20187;-78
2023/03/16 08:43:07;;;;;;;5.97;3.00;;;;;;;5.31;77.09;94465.59;5020535;28;20666;-80
2023/03/16 08:45:32;;;;;;;6.47;2.90;;;;;;;5.35;76.72;94462.63;5022461;28;20641;-79
2023/03/16 08:47:59;;;;;;;6.83;3.10;;;;;;;5.47;76.04;94474.94;5029739;28;20196;-78
2023/03/16 08:50:25;;;;;;;5.90;3.70;;;;;;;5.56;76.21;94470.41;5032523;28;20191;-78
2023/03/16 08:52:50;;;;;;;9.83;4.60;;;;;;;5.47;75.97;94459.28;5033805;28;20180;-78
2023/03/16 08:55:16;;;;;;;3.60;2.50;;;;;;;5.54;74.61;94475.81;5035294;28;20639;-77
2023/03/16 08:57:43;;;;;;;2.00;1.80;;;;;;;5.51;75.45;94472.78;5031637;28;20186;-78
2023/03/16 09:00:13;;;;;;;2.20;2.00;;;;;;;5.51;75.73;94457.94;5028661;28;20242;-78
2023/03/16 09:02:42;;;;;;;5.10;2.60;;;;;;;5.58;75.39;94481.47;5033559;28;20910;-77
2023/03/16 09:05:10;;;;;;;4.83;2.80;;;;;;;5.73;76.04;94489.19;5022862;28;20227;-77
2023/03/16 09:07:36;;;;;;;5.13;3.23;;;;;;;5.82;76.05;94488.06;5015535;28;20176;-78
2023/03/16 09:10:04;;;;;;;2.23;2.03;;;;;;;5.67;73.52;94473.31;5031885;28;20207;-78
2023/03/16 09:12:30;;;;;;;7.30;3.43;;;;;;;5.76;74.18;94489.63;5025920;28;20207;-76
2023/03/16 09:14:56;;;;;;;3.23;2.30;;;;;;;5.77;73.54;94487.84;5034406;28;20178;-77
2023/03/16 09:17:21;;;;;;;4.50;2.50;;;;;;;5.78;73.96;94485.03;5033687;28;20183;-77
2023/03/16 09:19:47;;;;;;;5.07;2.47;;;;;;;5.85;73.37;94485.06;5034725;28;20543;-77
2023/03/16 09:22:12;;;;;;;5.30;2.57;;;;;;;5.86;73.68;94502.38;5015149;28;20208;-77
2023/03/16 09:24:38;;;;;;;5.10;2.70;;;;;;;5.67;73.83;94485.56;5023724;28;20184;-77
2023/03/16 09:27:04;;;;;;;7.10;3.77;;;;;;;5.81;73.02;94494.28;5015111;28;20184;-78
2023/03/16 09:29:29;;;;;;;6.83;3.20;;;;;;;5.48;73.36;94497.44;5023648;28;20204;-77
2023/03/16 09:31:55;;;;;;;6.60;2.50;;;;;;;5.40;73.66;94488.94;5034482;28;20594;-78
2023/03/16 09:34:21;;;;;;;9.33;4.33;;;;;;;5.53;75.23;94492.50;5023096;28;20236;-78
2023/03/16 09:36:47;;;;;;;3.50;1.93;;;;;;;5.54;73.41;94511.53;5021635;28;20180;-76
2023/03/16 09:39:12;;;;;;;2.63;2.07;;;;;;;5.48;74.04;94505.28;5033553;28;20620;-77
2023/03/16 09:41:57;;;;;;;3.60;2.93;;;;;;;5.56;75.57;94499.13;5034153;28;20183;-76
2023/03/16 09:44:36;;;;;;;7.40;2.80;;;;;;;5.57;73.95;94508.56;5033499;28;20643;-76
2023/03/16 09:47:04;;;;;;;7.03;2.77;;;;;;;5.58;73.49;94500.56;5024794;28;20234;-76
2023/03/16 09:49:46;;;;;;;2.83;2.30;;;;;;;5.59;74.04;94506.59;5033564;28;20663;-77
2023/03/16 09:52:39;;;;;;;5.70;3.00;;;;;;;5.47;75.04;94503.66;5032756;28;20207;-77
2023/03/16 09:55:29;;;;;;;7.60;3.60;;;;;;;5.46;75.14;94504.66;5033931;28;20172;-77
2023/03/16 09:57:57;;;;;;;6.07;3.57;;;;;;;5.47;75.29;94501.06;5033161;28;20172;-80
2023/03/16 10:01:02;;;;;;;7.10;3.83;;;;;;;5.50;76.16;94503.28;5023017;28;20222;-78
2023/03/16 10:04:01;;;;;;;5.30;3.73;;;;;;;5.56;76.50;94509.56;5019205;28;20191;-78
2023/03/16 10:06:27;;;;;;;8.40;4.00;;;;;;;5.59;74.63;94509.19;5027545;28;20165;-77
2023/03/16 10:09:15;;;;;;;9.23;4.13;;;;;;;5.65;75.18;94511.84;5023625;28;20215;-77
2023/03/16 10:11:47;;;;;;;4.83;3.47;;;;;;;5.74;75.98;94496.03;5033291;28;20211;-77
2023/03/16 10:14:27;;;;;;;3.70;2.60;;;;;;;5.95;73.12;94516.94;5029123;28;20187;-77
2023/03/16 10:17:03;;;;;;;4.80;2.90;;;;;;;5.94;72.72;94508.28;5032800;28;20187;-77
2023/03/16 10:19:52;;;;;;;5.60;2.70;;;;;;;5.80;72.41;94500.50;5032604;28;20232;-77
2023/03/16 10:22:45;;;;;;;4.13;3.33;;;;;;;5.81;72.45;94512.56;5023695;28;20187;-77
2023/03/16 10:25:43;;;;;;;6.03;3.37;;;;;;;5.86;72.41;94507.59;5027085;28;20194;-77
2023/03/16 10:28:21;;;;;;;5.70;3.23;;;;;;;5.62;72.93;94509.59;5005493;28;20180;-77
2023/03/16 10:30:50;;;;;;;4.67;2.57;;;;;;;5.77;76.16;94508.72;5031390;28;20186;-77
2023/03/16 10:33:25;;;;;;;5.87;3.60;;;;;;;5.90;75.65;94516.66;5033808;28;20262;-77
2023/03/16 10:35:56;;;;;;;3.20;2.73;;;;;;;5.91;74.32;94513.06;5031043;28;20179;-78
2023/03/16 10:38:48;;;;;;;6.10;3.20;;;;;;;5.77;73.05;94506.94;5028752;28;20175;-77
2023/03/16 10:41:16;;;;;;;5.43;3.00;;;;;;;5.87;73.79;94511.81;5033904;28;20180;-77
2023/03/16 10:43:46;;;;;;;5.23;2.90;;;;;;;5.78;73.82;94505.94;5017468;28;20188;-77
2023/03/16 10:46:12;;;;;;;7.97;4.87;;;;;;;5.83;74.46;94498.31;5024602;28;20223;-77
2023/03/16 10:48:39;;;;;;;6.17;4.13;;;;;;;5.85;73.60;94501.56;5028837;28;20622;-77
2023/03/16 10:51:12;;;;;;;8.77;4.37;;;;;;;5.92;73.26;94510.28;5024613;28;20175;-77
2023/03/16 10:53:41;;;;;;;5.93;3.90;;;;;;;5.97;72.24;94507.88;5024265;28;20187;-77
2023/03/16 10:56:36;;;;;;;5.50;3.67;;;;;;;5.91;70.78;94503.44;5033025;28;20182;-77
2023/03/16 10:59:33;;;;;;;6.00;3.63;;;;;;;5.95;71.92;94502.06;5001498;28;20188;-76
2023/03/16 11:02:01;;;;;;;5.10;3.10;;;;;;;5.89;70.15;94504.59;5021214;28;20262;-77
2023/03/16 11:04:32;;;;;;;2.63;2.43;;;;;;;5.94;70.32;94512.69;5012874;28;20238;-78
2023/03/16 11:06:57;;;;;;;6.57;3.73;;;;;;;5.88;71.13;94501.19;5022562;28;20180;-78
2023/03/16 11:09:33;;;;;;;4.03;2.70;;;;;;;5.89;69.81;94507.22;5023906;28;20211;-78
2023/03/16 11:12:10;;;;;;;4.20;2.33;;;;;;;5.81;70.49;94515.97;5033485;28;20187;-78
2023/03/16 11:14:36;;;;;;;4.40;2.43;;;;;;;5.52;71.43;94503.94;5018909;28;20180;-78
2023/03/16 11:17:09;;;;;;;7.33;4.20;;;;;;;5.51;72.93;94512.75;5027846;28;20522;-78
2023/03/16 11:19:43;;;;;;;3.53;2.90;;;;;;;5.53;72.12;94515.16;5024542;28;20576;-76
2023/03/16 11:22:18;;;;;;;2.50;2.27;;;;;;;5.30;71.77;94495.28;5027379;28;20547;-76
2023/03/16 11:25:10;;;;;;;3.67;2.43;;;;;;;5.31;72.02;94512.56;5028847;28;20699;-77
2023/03/16 11:27:50;;;;;;;4.43;2.77;;;;;;;5.36;71.92;94514.63;5023451;28;20180;-77
2023/03/16 11:30:22;;;;;;;5.93;3.40;;;;;;;5.37;72.97;94508.38;5032000;28;20706;-77
2023/03/16 11:32:52;;;;;;;6.93;3.57;;;;;;;5.42;71.90;94506.03;5023079;28;20597;-77
2023/03/16 11:35:21;;;;;;;5.70;3.30;;;;;;;5.26;72.75;94498.47;5039184;28;20167;-77
2023/03/16 11:37:49;;;;;;;7.13;4.00;;;;;;;5.43;72.69;94515.50;5029050;28;20199;-77
2023/03/16 11:40:41;;;;;;;3.23;2.50;;;;;;;5.16;72.09;94496.16;5027288;28;20625;-77
2023/03/16 11:43:18;;;;;;;3.17;2.77;;;;;;;5.26;73.07;94516.75;5026828;28;20188;-77
2023/03/16 11:46:02;;;;;;;3.03;2.50;;;;;;;5.16;72.09;94485.75;5017792;28;20762;-77
2023/03/16 11:48:35;;;;;;;4.40;2.83;;;;;;;5.24;72.46;94527.34;5013076;28;20253;-77
2023/03/16 11:51:08;;;;;;;4.63;3.03;;;;;;;5.34;72.62;94521.81;5001556;28;20672;-77